sensor_id;sensor_type;location;lat;lon;timestamp;pressure;altitude;pressure_sealevel;temperature;humidity
59443;BME280;45247;47.466;19.004;2023-05-02T00:02:29;99969.09;;;13.67;49.36
59443;BME280;45247;47.466;19.004;2023-05-02T00:04:57;99965.69;;;13.65;50.09
59443;BME280;45247;47.466;19.004;2023-05-02T00:07:25;99966.53;;;13.66;49.86
59443;BME280;45247;47.466;19.004;2023-05-02T00:09:53;99963.47;;;13.72;48.85
59443;BME280;45247;47.466;19.004;2023-05-02T00:12:21;99966.63;;;13.77;49.91
59443;BME280;45247;47.466;19.004;2023-05-02T00:14:50;99960.97;;;13.82;49.41
59443;BME280;45247;47.466;19.004;2023-05-02T00:17:18;99966.94;;;13.72;49.94
59443;BME280;45247;47.466;19.004;2023-05-02T00:19:48;99963.56;;;13.70;50.17
59443;BME280;45247;47.466;19.004;2023-05-02T00:22:16;99970.66;;;13.70;49.96
59443;BME280;45247;47.466;19.004;2023-05-02T00:24:44;99970.16;;;13.65;49.41
59443;BME280;45247;47.466;19.004;2023-05-02T00:27:12;99967.81;;;13.60;51.01
59443;BME280;45247;47.466;19.004;2023-05-02T00:29:42;99975.44;;;13.65;50.35
59443;BME280;45247;47.466;19.004;2023-05-02T00:32:11;99960.84;;;13.59;50.17
59443;BME280;45247;47.466;19.004;2023-05-02T00:34:39;99965.06;;;13.62;49.86
59443;BME280;45247;47.466;19.004;2023-05-02T00:37:08;99971.94;;;13.64;49.87
59443;BME280;45247;47.466;19.004;2023-05-02T00:39:36;99971.75;;;13.67;49.72
59443;BME280;45247;47.466;19.004;2023-05-02T00:42:04;99964.13;;;13.63;50.42
59443;BME280;45247;47.466;19.004;2023-05-02T00:44:33;99950.84;;;13.63;50.22
59443;BME280;45247;47.466;19.004;2023-05-02T00:47:01;99968.66;;;13.61;50.52
59443;BME280;45247;47.466;19.004;2023-05-02T00:49:30;99962.41;;;13.62;50.22
59443;BME280;45247;47.466;19.004;2023-05-02T00:51:58;99965.50;;;13.56;50.71
59443;BME280;45247;47.466;19.004;2023-05-02T00:54:27;99968.16;;;13.56;50.35
59443;BME280;45247;47.466;19.004;2023-05-02T00:56:56;99970.81;;;13.56;50.55
59443;BME280;45247;47.466;19.004;2023-05-02T00:59:25;99973.13;;;13.60;50.11
59443;BME280;45247;47.466;19.004;2023-05-02T01:02:01;99968.16;;;13.56;50.47
59443;BME280;45247;47.466;19.004;2023-05-02T01:04:40;99962.84;;;13.56;50.81
59443;BME280;45247;47.466;19.004;2023-05-02T01:07:25;99963.06;;;13.52;50.60
59443;BME280;45247;47.466;19.004;2023-05-02T01:10:10;99968.59;;;13.49;51.39
59443;BME280;45247;47.466;19.004;2023-05-02T01:12:44;99965.94;;;13.49;50.63
59443;BME280;45247;47.466;19.004;2023-05-02T01:15:16;99966.16;;;13.46;50.80
59443;BME280;45247;47.466;19.004;2023-05-02T01:17:46;99967.31;;;13.42;51.43
59443;BME280;45247;47.466;19.004;2023-05-02T01:20:19;99966.81;;;13.37;51.72
59443;BME280;45247;47.466;19.004;2023-05-02T01:22:48;99961.91;;;13.31;51.85
59443;BME280;45247;47.466;19.004;2023-05-02T01:25:25;99960.03;;;13.33;51.95
59443;BME280;45247;47.466;19.004;2023-05-02T01:28:04;99963.63;;;13.32;51.12
59443;BME280;45247;47.466;19.004;2023-05-02T01:30:38;99965.31;;;13.33;51.69
59443;BME280;45247;47.466;19.004;2023-05-02T01:33:10;99962.34;;;13.25;52.69
59443;BME280;45247;47.466;19.004;2023-05-02T01:35:41;99962.97;;;13.16;52.62
59443;BME280;45247;47.466;19.004;2023-05-02T01:38:13;99954.50;;;13.11;52.54
59443;BME280;45247;47.466;19.004;2023-05-02T01:40:43;99957.44;;;13.19;52.77
59443;BME280;45247;47.466;19.004;2023-05-02T01:43:13;99961.38;;;13.13;53.15
59443;BME280;45247;47.466;19.004;2023-05-02T01:45:44;99957.34;;;13.08;53.23
59443;BME280;45247;47.466;19.004;2023-05-02T01:48:15;99956.59;;;13.06;53.59
59443;BME280;45247;47.466;19.004;2023-05-02T01:50:46;99955.09;;;13.01;53.97
59443;BME280;45247;47.466;19.004;2023-05-02T01:53:14;99945.38;;;13.02;53.18
59443;BME280;45247;47.466;19.004;2023-05-02T01:55:44;99951.72;;;12.99;53.88
59443;BME280;45247;47.466;19.004;2023-05-02T01:58:13;99945.78;;;12.96;54.63
59443;BME280;45247;47.466;19.004;2023-05-02T02:00:44;99950.66;;;12.89;54.03
59443;BME280;45247;47.466;19.004;2023-05-02T02:03:14;99950.44;;;12.92;53.96
59443;BME280;45247;47.466;19.004;2023-05-02T02:05:43;99948.31;;;12.85;54.72
59443;BME280;45247;47.466;19.004;2023-05-02T02:08:13;99937.09;;;12.81;54.95
59443;BME280;45247;47.466;19.004;2023-05-02T02:10:44;99945.13;;;12.79;56.29
59443;BME280;45247;47.466;19.004;2023-05-02T02:13:17;99940.56;;;12.69;57.67
59443;BME280;45247;47.466;19.004;2023-05-02T02:15:48;99941.94;;;12.62;57.83
59443;BME280;45247;47.466;19.004;2023-05-02T02:18:20;99940.25;;;12.61;57.76
59443;BME280;45247;47.466;19.004;2023-05-02T02:20:49;99932.69;;;12.54;58.29
59443;BME280;45247;47.466;19.004;2023-05-02T02:23:21;99937.06;;;12.56;59.65
59443;BME280;45247;47.466;19.004;2023-05-02T02:25:51;99934.72;;;12.51;60.57
59443;BME280;45247;47.466;19.004;2023-05-02T02:28:21;99934.28;;;12.44;61.84
59443;BME280;45247;47.466;19.004;2023-05-02T02:30:50;99932.88;;;12.39;62.37
59443;BME280;45247;47.466;19.004;2023-05-02T02:33:19;99926.59;;;12.27;62.90
59443;BME280;45247;47.466;19.004;2023-05-02T02:35:52;99937.19;;;12.27;63.31
59443;BME280;45247;47.466;19.004;2023-05-02T02:38:28;99930.94;;;12.28;64.03
59443;BME280;45247;47.466;19.004;2023-05-02T02:41:05;99928.41;;;12.26;65.56
59443;BME280;45247;47.466;19.004;2023-05-02T02:43:42;99934.25;;;12.32;66.68
59443;BME280;45247;47.466;19.004;2023-05-02T02:46:19;99934.25;;;12.32;66.78
59443;BME280;45247;47.466;19.004;2023-05-02T02:48:59;99930.41;;;12.23;67.78
59443;BME280;45247;47.466;19.004;2023-05-02T02:51:38;99930.06;;;12.15;67.67
59443;BME280;45247;47.466;19.004;2023-05-02T02:54:13;99934.38;;;12.16;68.39
59443;BME280;45247;47.466;19.004;2023-05-02T02:56:57;99932.88;;;12.12;67.84
59443;BME280;45247;47.466;19.004;2023-05-02T02:59:31;99935.00;;;12.07;67.21
59443;BME280;45247;47.466;19.004;2023-05-02T03:02:05;99937.56;;;12.08;67.53
59443;BME280;45247;47.466;19.004;2023-05-02T03:04:37;99940.50;;;12.03;67.79
59443;BME280;45247;47.466;19.004;2023-05-02T03:07:05;99940.69;;;12.00;67.68
59443;BME280;45247;47.466;19.004;2023-05-02T03:09:40;99948.94;;;11.96;68.44
59443;BME280;45247;47.466;19.004;2023-05-02T03:12:09;99943.53;;;11.97;67.15
59443;BME280;45247;47.466;19.004;2023-05-02T03:14:38;99933.25;;;11.93;67.59
59443;BME280;45247;47.466;19.004;2023-05-02T03:17:07;99949.22;;;11.91;67.99
59443;BME280;45247;47.466;19.004;2023-05-02T03:19:36;99952.06;;;11.88;68.01
59443;BME280;45247;47.466;19.004;2023-05-02T03:22:04;99949.59;;;11.85;69.61
59443;BME280;45247;47.466;19.004;2023-05-02T03:24:32;99948.75;;;11.85;69.26
59443;BME280;45247;47.466;19.004;2023-05-02T03:27:01;99951.41;;;11.85;69.74
59443;BME280;45247;47.466;19.004;2023-05-02T03:29:29;99952.44;;;11.82;70.47
59443;BME280;45247;47.466;19.004;2023-05-02T03:31:57;99944.50;;;11.82;70.91
59443;BME280;45247;47.466;19.004;2023-05-02T03:34:27;99946.13;;;11.85;71.65
59443;BME280;45247;47.466;19.004;2023-05-02T03:36:55;99960.00;;;11.88;71.44
59443;BME280;45247;47.466;19.004;2023-05-02T03:39:23;99957.16;;;11.91;71.40
59443;BME280;45247;47.466;19.004;2023-05-02T03:41:51;99950.22;;;12.03;69.71
59443;BME280;45247;47.466;19.004;2023-05-02T03:44:19;99955.56;;;12.16;69.36
59443;BME280;45247;47.466;19.004;2023-05-02T03:46:47;99953.56;;;12.19;67.67
59443;BME280;45247;47.466;19.004;2023-05-02T03:49:16;99963.66;;;12.27;67.46
59443;BME280;45247;47.466;19.004;2023-05-02T03:51:46;99959.84;;;12.31;67.15
59443;BME280;45247;47.466;19.004;2023-05-02T03:54:17;99956.06;;;12.35;67.29
59443;BME280;45247;47.466;19.004;2023-05-02T03:56:45;99963.50;;;12.43;67.09
59443;BME280;45247;47.466;19.004;2023-05-02T03:59:14;99958.44;;;12.52;67.36
59443;BME280;45247;47.466;19.004;2023-05-02T04:01:42;99955.94;;;12.76;66.36
59443;BME280;45247;47.466;19.004;2023-05-02T04:04:10;99967.84;;;13.35;65.21
59443;BME280;45247;47.466;19.004;2023-05-02T04:06:38;99973.88;;;13.62;63.60
59443;BME280;45247;47.466;19.004;2023-05-02T04:09:07;99965.91;;;13.75;62.88
59443;BME280;45247;47.466;19.004;2023-05-02T04:11:35;99962.84;;;13.56;63.39
59443;BME280;45247;47.466;19.004;2023-05-02T04:14:04;99969.97;;;13.42;64.25
59443;BME280;45247;47.466;19.004;2023-05-02T04:16:32;99967.44;;;13.41;65.41
59443;BME280;45247;47.466;19.004;2023-05-02T04:19:00;99955.34;;;13.37;66.63
59443;BME280;45247;47.466;19.004;2023-05-02T04:21:28;99972.72;;;13.53;65.48
59443;BME280;45247;47.466;19.004;2023-05-02T04:23:57;99975.88;;;14.32;63.16
59443;BME280;45247;47.466;19.004;2023-05-02T04:26:27;99971.09;;;15.41;59.61
59443;BME280;45247;47.466;19.004;2023-05-02T04:28:55;99972.56;;;16.66;56.26
59443;BME280;45247;47.466;19.004;2023-05-02T04:31:23;99974.16;;;17.62;53.57
59443;BME280;45247;47.466;19.004;2023-05-02T04:33:51;99976.47;;;18.84;50.32
59443;BME280;45247;47.466;19.004;2023-05-02T04:36:19;99977.50;;;19.77;47.97
59443;BME280;45247;47.466;19.004;2023-05-02T04:38:47;99973.56;;;20.80;45.77
59443;BME280;45247;47.466;19.004;2023-05-02T04:41:15;99967.06;;;20.83;43.65
59443;BME280;45247;47.466;19.004;2023-05-02T04:43:45;99979.31;;;21.55;42.79
59443;BME280;45247;47.466;19.004;2023-05-02T04:46:13;99983.53;;;21.66;42.00
59443;BME280;45247;47.466;19.004;2023-05-02T04:48:41;99986.34;;;22.49;40.44
59443;BME280;45247;47.466;19.004;2023-05-02T04:51:09;99990.56;;;22.68;40.79
59443;BME280;45247;47.466;19.004;2023-05-02T04:53:41;99975.06;;;23.43;39.71
59443;BME280;45247;47.466;19.004;2023-05-02T04:56:10;99987.81;;;23.58;38.54
59443;BME280;45247;47.466;19.004;2023-05-02T04:58:38;99987.22;;;23.87;38.36
59443;BME280;45247;47.466;19.004;2023-05-02T05:01:07;99979.31;;;24.70;37.39
59443;BME280;45247;47.466;19.004;2023-05-02T05:03:35;99982.56;;;24.66;36.69
59443;BME280;45247;47.466;19.004;2023-05-02T05:06:04;99981.50;;;25.13;36.48
59443;BME280;45247;47.466;19.004;2023-05-02T05:08:32;99982.41;;;25.87;35.11
59443;BME280;45247;47.466;19.004;2023-05-02T05:11:00;99983.22;;;25.14;35.50
59443;BME280;45247;47.466;19.004;2023-05-02T05:13:30;99986.03;;;24.52;36.91
59443;BME280;45247;47.466;19.004;2023-05-02T05:15:58;99995.97;;;24.74;37.10
59443;BME280;45247;47.466;19.004;2023-05-02T05:18:29;99989.16;;;25.24;36.33
59443;BME280;45247;47.466;19.004;2023-05-02T05:20:58;99989.13;;;24.86;36.42
59443;BME280;45247;47.466;19.004;2023-05-02T05:23:26;99993.19;;;24.36;37.46
59443;BME280;45247;47.466;19.004;2023-05-02T05:25:54;99994.16;;;23.81;38.18
59443;BME280;45247;47.466;19.004;2023-05-02T05:28:22;99998.94;;;23.46;38.30
59443;BME280;45247;47.466;19.004;2023-05-02T05:30:50;100004.00;;;23.41;38.85
59443;BME280;45247;47.466;19.004;2023-05-02T05:33:18;100011.72;;;24.08;37.80
59443;BME280;45247;47.466;19.004;2023-05-02T05:35:48;100005.91;;;24.19;38.04
59443;BME280;45247;47.466;19.004;2023-05-02T05:38:16;100000.44;;;24.67;37.16
59443;BME280;45247;47.466;19.004;2023-05-02T05:40:48;100008.94;;;25.02;35.81
59443;BME280;45247;47.466;19.004;2023-05-02T05:43:16;100005.66;;;25.29;37.15
59443;BME280;45247;47.466;19.004;2023-05-02T05:45:44;100007.94;;;25.17;35.65
59443;BME280;45247;47.466;19.004;2023-05-02T05:48:12;100019.84;;;24.31;36.72
59443;BME280;45247;47.466;19.004;2023-05-02T05:50:40;100027.88;;;24.08;37.58
59443;BME280;45247;47.466;19.004;2023-05-02T05:53:11;100020.03;;;24.61;36.95
59443;BME280;45247;47.466;19.004;2023-05-02T05:55:40;100021.47;;;24.48;36.93
59443;BME280;45247;47.466;19.004;2023-05-02T05:58:08;100010.97;;;25.37;35.93
59443;BME280;45247;47.466;19.004;2023-05-02T06:00:37;100019.63;;;25.47;36.23
59443;BME280;45247;47.466;19.004;2023-05-02T06:03:07;100018.75;;;24.94;36.96
59443;BME280;45247;47.466;19.004;2023-05-02T06:05:35;100023.81;;;24.97;36.69
59443;BME280;45247;47.466;19.004;2023-05-02T06:08:04;100027.03;;;24.70;36.78
59443;BME280;45247;47.466;19.004;2023-05-02T06:10:33;100024.78;;;24.19;37.65
59443;BME280;45247;47.466;19.004;2023-05-02T06:13:01;100023.91;;;24.27;37.06
59443;BME280;45247;47.466;19.004;2023-05-02T06:15:32;100030.47;;;23.93;38.53
59443;BME280;45247;47.466;19.004;2023-05-02T06:18:00;100019.09;;;23.67;37.71
59443;BME280;45247;47.466;19.004;2023-05-02T06:20:29;100025.81;;;23.63;38.31
59443;BME280;45247;47.466;19.004;2023-05-02T06:22:57;100011.13;;;23.02;39.26
59443;BME280;45247;47.466;19.004;2023-05-02T06:25:25;100035.34;;;23.26;38.93
59443;BME280;45247;47.466;19.004;2023-05-02T06:27:55;100029.63;;;23.05;39.23
59443;BME280;45247;47.466;19.004;2023-05-02T06:30:23;100027.59;;;23.23;38.62
59443;BME280;45247;47.466;19.004;2023-05-02T06:32:52;100037.19;;;23.01;40.18
59443;BME280;45247;47.466;19.004;2023-05-02T06:35:20;100024.53;;;22.85;39.70
59443;BME280;45247;47.466;19.004;2023-05-02T06:37:48;100032.31;;;23.13;40.82
59443;BME280;45247;47.466;19.004;2023-05-02T06:40:16;100040.38;;;23.21;40.41
59443;BME280;45247;47.466;19.004;2023-05-02T06:42:44;100029.91;;;22.53;40.13
59443;BME280;45247;47.466;19.004;2023-05-02T06:45:14;100036.13;;;22.53;40.98
59443;BME280;45247;47.466;19.004;2023-05-02T06:47:42;100037.38;;;22.24;41.92
59443;BME280;45247;47.466;19.004;2023-05-02T06:50:11;100037.47;;;21.46;42.51
59443;BME280;45247;47.466;19.004;2023-05-02T06:52:39;100038.59;;;21.70;42.26
59443;BME280;45247;47.466;19.004;2023-05-02T06:55:07;100032.94;;;22.58;41.86
59443;BME280;45247;47.466;19.004;2023-05-02T06:57:36;100035.91;;;22.46;42.35
59443;BME280;45247;47.466;19.004;2023-05-02T07:00:06;100029.25;;;22.67;41.39
59443;BME280;45247;47.466;19.004;2023-05-02T07:02:36;100035.13;;;22.87;40.93
59443;BME280;45247;47.466;19.004;2023-05-02T07:05:04;100036.00;;;23.12;40.64
59443;BME280;45247;47.466;19.004;2023-05-02T07:07:33;100031.63;;;23.35;40.95
59443;BME280;45247;47.466;19.004;2023-05-02T07:10:02;100036.31;;;23.25;40.03
59443;BME280;45247;47.466;19.004;2023-05-02T07:12:30;100034.00;;;22.97;40.45
59443;BME280;45247;47.466;19.004;2023-05-02T07:14:58;100031.22;;;22.57;41.67
59443;BME280;45247;47.466;19.004;2023-05-02T07:17:26;100037.59;;;22.47;42.38
59443;BME280;45247;47.466;19.004;2023-05-02T07:19:56;100030.56;;;22.63;41.40
59443;BME280;45247;47.466;19.004;2023-05-02T07:22:25;100035.28;;;22.53;42.66
59443;BME280;45247;47.466;19.004;2023-05-02T07:24:56;100023.31;;;22.55;41.54
59443;BME280;45247;47.466;19.004;2023-05-02T07:27:25;100028.19;;;22.52;42.05
59443;BME280;45247;47.466;19.004;2023-05-02T07:29:53;100037.56;;;22.31;42.56
59443;BME280;45247;47.466;19.004;2023-05-02T07:32:21;100031.38;;;22.05;42.81
59443;BME280;45247;47.466;19.004;2023-05-02T07:34:50;100037.72;;;21.95;42.38
59443;BME280;45247;47.466;19.004;2023-05-02T07:37:22;100048.91;;;21.83;42.62
59443;BME280;45247;47.466;19.004;2023-05-02T07:39:50;100050.78;;;21.56;42.95
59443;BME280;45247;47.466;19.004;2023-05-02T07:42:18;100034.31;;;21.51;43.06
59443;BME280;45247;47.466;19.004;2023-05-02T07:44:46;100020.91;;;21.51;44.05
59443;BME280;45247;47.466;19.004;2023-05-02T07:47:14;100046.94;;;21.85;43.85
59443;BME280;45247;47.466;19.004;2023-05-02T07:49:42;100045.91;;;21.52;43.50
59443;BME280;45247;47.466;19.004;2023-05-02T07:52:11;100042.13;;;22.05;44.71
59443;BME280;45247;47.466;19.004;2023-05-02T07:54:40;100047.94;;;22.26;43.08
59443;BME280;45247;47.466;19.004;2023-05-02T07:57:09;100040.50;;;22.62;43.44
59443;BME280;45247;47.466;19.004;2023-05-02T07:59:37;100043.50;;;22.59;42.75
59443;BME280;45247;47.466;19.004;2023-05-02T08:02:05;100037.19;;;23.09;43.48
59443;BME280;45247;47.466;19.004;2023-05-02T08:04:34;100042.75;;;22.91;42.72
59443;BME280;45247;47.466;19.004;2023-05-02T08:07:02;100038.03;;;23.34;43.29
59443;BME280;45247;47.466;19.004;2023-05-02T08:09:30;100038.69;;;23.04;40.95
59443;BME280;45247;47.466;19.004;2023-05-02T08:12:00;100035.34;;;23.02;41.92
59443;BME280;45247;47.466;19.004;2023-05-02T08:14:29;100029.91;;;22.85;42.13
59443;BME280;45247;47.466;19.004;2023-05-02T08:16:58;100042.09;;;22.31;44.32
59443;BME280;45247;47.466;19.004;2023-05-02T08:19:26;100042.41;;;21.85;43.77
59443;BME280;45247;47.466;19.004;2023-05-02T08:21:54;100053.84;;;21.95;44.14
59443;BME280;45247;47.466;19.004;2023-05-02T08:24:22;100052.56;;;22.08;45.31
59443;BME280;45247;47.466;19.004;2023-05-02T08:26:51;100041.34;;;21.78;44.67
59443;BME280;45247;47.466;19.004;2023-05-02T08:29:20;100051.69;;;21.65;44.49
59443;BME280;45247;47.466;19.004;2023-05-02T08:31:48;100036.13;;;21.77;45.03
59443;BME280;45247;47.466;19.004;2023-05-02T08:34:16;100045.56;;;21.81;44.82
59443;BME280;45247;47.466;19.004;2023-05-02T08:36:45;100038.19;;;21.57;44.82
59443;BME280;45247;47.466;19.004;2023-05-02T08:39:14;100034.78;;;21.46;45.09
59443;BME280;45247;47.466;19.004;2023-05-02T08:41:42;100032.31;;;21.53;45.48
59443;BME280;45247;47.466;19.004;2023-05-02T08:44:11;100032.59;;;21.42;45.01
59443;BME280;45247;47.466;19.004;2023-05-02T08:46:41;100029.75;;;21.78;45.00
59443;BME280;45247;47.466;19.004;2023-05-02T08:49:10;100019.53;;;21.81;45.47
59443;BME280;45247;47.466;19.004;2023-05-02T08:51:41;100020.69;;;22.13;46.40
59443;BME280;45247;47.466;19.004;2023-05-02T08:54:15;100033.63;;;21.83;45.23
59443;BME280;45247;47.466;19.004;2023-05-02T08:56:44;100030.72;;;22.03;45.65
59443;BME280;45247;47.466;19.004;2023-05-02T08:59:12;100032.31;;;22.21;45.17
59443;BME280;45247;47.466;19.004;2023-05-02T09:01:43;100025.84;;;22.40;44.06
59443;BME280;45247;47.466;19.004;2023-05-02T09:04:13;100030.22;;;22.49;43.41
59443;BME280;45247;47.466;19.004;2023-05-02T09:06:42;100023.53;;;22.86;44.20
59443;BME280;45247;47.466;19.004;2023-05-02T09:09:10;100021.88;;;23.10;42.95
59443;BME280;45247;47.466;19.004;2023-05-02T09:11:39;100017.44;;;23.49;42.93
59443;BME280;45247;47.466;19.004;2023-05-02T09:14:13;100014.13;;;23.31;42.79
59443;BME280;45247;47.466;19.004;2023-05-02T09:16:43;100009.06;;;22.79;42.41
59443;BME280;45247;47.466;19.004;2023-05-02T09:19:23;100014.81;;;22.92;42.29
59443;BME280;45247;47.466;19.004;2023-05-02T09:21:52;100023.19;;;22.81;42.78
59443;BME280;45247;47.466;19.004;2023-05-02T09:24:26;100011.09;;;23.34;42.37
59443;BME280;45247;47.466;19.004;2023-05-02T09:26:59;100008.06;;;22.80;42.39
59443;BME280;45247;47.466;19.004;2023-05-02T09:29:29;100019.00;;;23.28;42.96
59443;BME280;45247;47.466;19.004;2023-05-02T09:32:04;100016.28;;;22.87;40.98
59443;BME280;45247;47.466;19.004;2023-05-02T09:34:33;100019.53;;;23.07;42.78
59443;BME280;45247;47.466;19.004;2023-05-02T09:37:03;100017.47;;;23.41;42.28
59443;BME280;45247;47.466;19.004;2023-05-02T09:39:32;100015.91;;;23.71;42.00
59443;BME280;45247;47.466;19.004;2023-05-02T09:42:00;100016.72;;;23.80;42.22
59443;BME280;45247;47.466;19.004;2023-05-02T09:44:35;100015.56;;;23.74;41.36
59443;BME280;45247;47.466;19.004;2023-05-02T09:47:06;100017.63;;;24.04;42.29
59443;BME280;45247;47.466;19.004;2023-05-02T09:49:39;100008.44;;;24.21;40.30
59443;BME280;45247;47.466;19.004;2023-05-02T09:52:11;100009.00;;;23.61;41.00
59443;BME280;45247;47.466;19.004;2023-05-02T09:54:40;100003.25;;;23.72;40.62
59443;BME280;45247;47.466;19.004;2023-05-02T09:57:08;100002.34;;;24.27;41.45
59443;BME280;45247;47.466;19.004;2023-05-02T09:59:38;99992.63;;;24.49;41.82
59443;BME280;45247;47.466;19.004;2023-05-02T10:02:08;99994.03;;;24.37;41.27
59443;BME280;45247;47.466;19.004;2023-05-02T10:04:38;100007.00;;;24.02;40.53
59443;BME280;45247;47.466;19.004;2023-05-02T10:07:08;99999.78;;;23.47;40.74
59443;BME280;45247;47.466;19.004;2023-05-02T10:09:39;100011.56;;;23.46;40.83
59443;BME280;45247;47.466;19.004;2023-05-02T10:12:13;100018.41;;;23.81;42.10
59443;BME280;45247;47.466;19.004;2023-05-02T10:14:48;100015.63;;;23.34;41.24
59443;BME280;45247;47.466;19.004;2023-05-02T10:17:23;100016.25;;;23.68;41.52
59443;BME280;45247;47.466;19.004;2023-05-02T10:20:00;100013.50;;;23.85;42.57
59443;BME280;45247;47.466;19.004;2023-05-02T10:22:32;99994.28;;;24.19;41.05
59443;BME280;45247;47.466;19.004;2023-05-02T10:25:01;99997.47;;;24.54;41.66
59443;BME280;45247;47.466;19.004;2023-05-02T10:27:30;99999.53;;;24.52;40.38
59443;BME280;45247;47.466;19.004;2023-05-02T10:29:59;99995.22;;;24.34;39.26
59443;BME280;45247;47.466;19.004;2023-05-02T10:32:32;99995.22;;;24.34;40.17
59443;BME280;45247;47.466;19.004;2023-05-02T10:35:03;99992.41;;;24.59;40.50
59443;BME280;45247;47.466;19.004;2023-05-02T10:37:33;99996.59;;;24.38;40.05
59443;BME280;45247;47.466;19.004;2023-05-02T10:40:03;99992.41;;;24.59;41.23
59443;BME280;45247;47.466;19.004;2023-05-02T10:42:36;99989.38;;;24.54;40.09
59443;BME280;45247;47.466;19.004;2023-05-02T10:45:09;99999.22;;;24.46;40.76
59443;BME280;45247;47.466;19.004;2023-05-02T10:47:40;100003.00;;;24.29;40.02
59443;BME280;45247;47.466;19.004;2023-05-02T10:50:08;100000.47;;;24.28;40.11
59443;BME280;45247;47.466;19.004;2023-05-02T10:52:38;99990.84;;;24.33;39.29
59443;BME280;45247;47.466;19.004;2023-05-02T10:55:14;99991.06;;;24.23;39.91
59443;BME280;45247;47.466;19.004;2023-05-02T10:58:20;99990.72;;;24.58;40.07
59443;BME280;45247;47.466;19.004;2023-05-02T11:00:49;99984.84;;;23.92;40.78
59443;BME280;45247;47.466;19.004;2023-05-02T11:03:55;99986.06;;;23.81;41.38
59443;BME280;45247;47.466;19.004;2023-05-02T11:06:25;99990.50;;;23.66;41.60
59443;BME280;45247;47.466;19.004;2023-05-02T11:09:31;99980.88;;;23.55;41.68
59443;BME280;45247;47.466;19.004;2023-05-02T11:12:01;99971.84;;;23.95;43.14
59443;BME280;45247;47.466;19.004;2023-05-02T11:14:43;99969.34;;;24.25;42.22
59443;BME280;45247;47.466;19.004;2023-05-02T11:17:17;99956.91;;;24.47;42.50
59443;BME280;45247;47.466;19.004;2023-05-02T11:23:20;99947.34;;;25.20;41.52
59443;BME280;45247;47.466;19.004;2023-05-02T11:25:54;99960.03;;;25.64;42.16
59443;BME280;45247;47.466;19.004;2023-05-02T11:28:43;99950.34;;;25.84;39.95
59443;BME280;45247;47.466;19.004;2023-05-02T11:34:18;99946.59;;;25.85;40.84
59443;BME280;45247;47.466;19.004;2023-05-02T11:36:46;99951.34;;;24.86;39.88
59443;BME280;45247;47.466;19.004;2023-05-02T11:39:19;99949.91;;;24.98;40.92
59443;BME280;45247;47.466;19.004;2023-05-02T11:41:48;99942.09;;;24.66;41.03
59443;BME280;45247;47.466;19.004;2023-05-02T11:44:17;99946.38;;;24.37;40.33
59443;BME280;45247;47.466;19.004;2023-05-02T11:46:45;99949.75;;;24.00;41.71
59443;BME280;45247;47.466;19.004;2023-05-02T11:49:13;99954.81;;;23.56;41.60
59443;BME280;45247;47.466;19.004;2023-05-02T11:51:42;99950.81;;;23.52;40.25
59443;BME280;45247;47.466;19.004;2023-05-02T11:54:19;99937.88;;;23.86;40.01
59443;BME280;45247;47.466;19.004;2023-05-02T11:56:47;99953.22;;;24.17;40.25
59443;BME280;45247;47.466;19.004;2023-05-02T11:59:16;99945.03;;;24.33;40.58
59443;BME280;45247;47.466;19.004;2023-05-02T12:01:48;99944.06;;;24.72;38.67
59443;BME280;45247;47.466;19.004;2023-05-02T12:04:16;99933.22;;;24.95;39.40
59443;BME280;45247;47.466;19.004;2023-05-02T12:06:53;99940.22;;;25.04;39.41
59443;BME280;45247;47.466;19.004;2023-05-02T12:09:23;99934.91;;;24.96;39.91
59443;BME280;45247;47.466;19.004;2023-05-02T12:11:52;99931.56;;;24.94;38.57
59443;BME280;45247;47.466;19.004;2023-05-02T12:14:27;99936.19;;;24.85;38.25
59443;BME280;45247;47.466;19.004;2023-05-02T12:16:57;99935.03;;;25.03;39.08
59443;BME280;45247;47.466;19.004;2023-05-02T12:19:26;99939.72;;;25.38;37.03
59443;BME280;45247;47.466;19.004;2023-05-02T12:21:54;99928.91;;;25.38;36.54
59443;BME280;45247;47.466;19.004;2023-05-02T12:24:24;99926.88;;;25.70;37.41
59443;BME280;45247;47.466;19.004;2023-05-02T12:27:08;99925.06;;;25.92;35.79
59443;BME280;45247;47.466;19.004;2023-05-02T12:29:37;99933.00;;;25.93;36.83
59443;BME280;45247;47.466;19.004;2023-05-02T12:32:06;99931.97;;;26.16;35.97
59443;BME280;45247;47.466;19.004;2023-05-02T12:34:35;99928.16;;;26.46;36.02
59443;BME280;45247;47.466;19.004;2023-05-02T12:37:03;99918.94;;;26.41;36.88
59443;BME280;45247;47.466;19.004;2023-05-02T12:39:36;99917.34;;;26.46;36.14
59443;BME280;45247;47.466;19.004;2023-05-02T12:42:08;99925.28;;;26.12;36.06
59443;BME280;45247;47.466;19.004;2023-05-02T12:44:37;99936.72;;;25.92;36.07
59443;BME280;45247;47.466;19.004;2023-05-02T12:47:06;99932.19;;;25.19;35.75
59443;BME280;45247;47.466;19.004;2023-05-02T12:49:47;99929.69;;;24.80;36.34
59443;BME280;45247;47.466;19.004;2023-05-02T12:52:16;99920.13;;;25.07;36.56
59443;BME280;45247;47.466;19.004;2023-05-02T12:54:46;99922.78;;;25.15;37.32
59443;BME280;45247;47.466;19.004;2023-05-02T12:57:22;99914.84;;;25.13;38.08
59443;BME280;45247;47.466;19.004;2023-05-02T12:59:51;99918.16;;;25.01;38.22
59443;BME280;45247;47.466;19.004;2023-05-02T13:02:20;99931.09;;;24.90;38.31
59443;BME280;45247;47.466;19.004;2023-05-02T13:04:48;99917.78;;;24.89;38.32
59443;BME280;45247;47.466;19.004;2023-05-02T13:07:17;99924.84;;;24.90;38.96
59443;BME280;45247;47.466;19.004;2023-05-02T13:09:46;99924.00;;;24.89;38.09